CheckWX is a tool to help pilots better visualize weather data.  It is not intended as a substitute for an official pre-flight weather briefing.

01:09:01 UTC

CYYE TAF
Fort Nelson Airport
Fort Nelson, Canada
TAF CYYE 240038Z 2401/2413 VRB03KT P6SM SKC RMK NXT FCST BY 240700Z

Feb-24@
01:00 UTC

Feb-24 @ 01:00 UTC

Feb-24@
13:00 UTC

Feb-24 @ 13:00 UTC

TAF CYYE 240038Z 2401/2413 VRB03KT P6SM SKC RMK NXT FCST BY 240700Z
Wind
  • Variable at 3 KTS
Cloud Levels
  • Clear skies